Martins Mills, Texas
Current Conditions -  °F | °C
As of 3:53 AM on Tuesday 27 Jan 2015 (Local Time) from KTYR Reporting Station
Clear Clear  
Wind Chill: 46°   Ceiling: Unl
Heat Index: 46°   Visibility: 10mi
Dew Point: 37°   Wind: 3mph
Humidity: 71%   Direction: 220°SW
Pressure: 30.06"   Gusts: NA
Location:  32.416°N, 95.6606°W
Report Text: KTYR 270953Z AUTO 22003KT 10SM CLR 08/03 A3006 RMK AO2 SLP177 T00780028
Loading
Personal Weather Stations






























Interactive Weather Map New forecast layout! Learn more

10-Day Weather Forecast

Advertisements
Track Severe Weather on mobile